ENVR/VRY METAR and TAF weather

Enter ICAO airport designator
Station Type Date Time Source
ENVR METAR 2024/06/15 05:50 UTC NOAA

ENVR 150550Z 36008KT CAVOK 12/09 Q1010


Station Type Date Time Source
ENVR Decoded METAR 2024/06/15 05:50 UTC NOAA

Station name not available
Jun 15, 2024 - 01:50 AM EDT / 2024.06.15 0550 UTC
Wind: from the N (360 degrees) at 9 MPH (8 KT):0
Visibility: greater than 7 mile(s):0
Temperature: 53 F (12 C)
Dew Point: 48 F (9 C)
Relative Humidity: 81%
Pressure (altimeter): 29.83 in. Hg (1010 hPa)
ob: ENVR 150550Z 36008KT CAVOK 12/09 Q1010
cycle: 6

Station Type Date Time Source
ENVR TAF UTC NOAA

Error!

Example: see airport list